createdAt,value
2019-03-30T00:00:10.141Z,99554.41
2019-03-30T00:02:37.911Z,99557.45
2019-03-30T00:05:06.949Z,99553.62
2019-03-30T00:07:35.466Z,99553.33
2019-03-30T00:10:05.690Z,99555.25
2019-03-30T00:12:34.284Z,99549.72
2019-03-30T00:15:03.054Z,99548.42
2019-03-30T00:17:31.562Z,99551.19
2019-03-30T00:20:00.052Z,99555.08
2019-03-30T00:22:28.568Z,99552.69
2019-03-30T00:24:57.059Z,99551.58
2019-03-30T00:27:25.778Z,99547.19
2019-03-30T00:29:54.259Z,99535.10
2019-03-30T00:32:22.746Z,99536.22
2019-03-30T00:34:51.268Z,99532.89
2019-03-30T00:37:19.766Z,99535.42
2019-03-30T00:39:48.279Z,99530.15
2019-03-30T00:42:16.818Z,99534.75
2019-03-30T00:44:45.395Z,99535.25
2019-03-30T00:47:13.900Z,99534.16
2019-03-30T00:49:48.832Z,99522.66
2019-03-30T00:52:12.643Z,99523.52
2019-03-30T00:54:41.158Z,99523.77
2019-03-30T00:57:09.672Z,99524.89
2019-03-30T00:59:38.173Z,99522.14
2019-03-30T01:02:06.742Z,99525.14
2019-03-30T01:04:35.227Z,99514.98
2019-03-30T01:07:03.794Z,99519.59
2019-03-30T01:09:32.314Z,99519.59
2019-03-30T01:12:00.811Z,99508.31
2019-03-30T01:14:29.322Z,99517.87
2019-03-30T01:16:57.828Z,99513.72
2019-03-30T01:19:26.356Z,99511.55
2019-03-30T01:21:56.334Z,99514.16
2019-03-30T01:24:25.025Z,99506.77
2019-03-30T01:26:53.511Z,99510.91
2019-03-30T01:29:22.035Z,99515.58
2019-03-30T01:31:50.524Z,99512.28
2019-03-30T01:34:19.119Z,99510.35
2019-03-30T01:36:47.664Z,99516.38
2019-03-30T01:39:16.154Z,99515.42
2019-03-30T01:41:44.642Z,99510.00
2019-03-30T01:44:13.166Z,99511.98
2019-03-30T01:46:41.658Z,99506.78
2019-03-30T01:49:10.172Z,99503.20
2019-03-30T01:51:38.666Z,99499.91
2019-03-30T01:54:07.158Z,99493.60
2019-03-30T01:56:35.660Z,99495.27
2019-03-30T01:59:04.303Z,99504.56
2019-03-30T02:01:32.902Z,99496.00
2019-03-30T02:04:01.591Z,99498.75
2019-03-30T02:06:30.083Z,99500.64
2019-03-30T02:08:58.645Z,99492.72
2019-03-30T02:11:27.166Z,99495.16
2019-03-30T02:13:55.663Z,99492.94
2019-03-30T02:16:24.231Z,99492.94
2019-03-30T02:18:52.755Z,99486.08
2019-03-30T02:21:21.246Z,99489.38
2019-03-30T02:23:49.748Z,99483.03
2019-03-30T02:26:18.272Z,99476.10
2019-03-30T02:28:46.758Z,99492.67
2019-03-30T02:31:15.348Z,99491.70
2019-03-30T02:33:43.836Z,99489.95
2019-03-30T02:36:12.373Z,99492.75
2019-03-30T02:38:40.838Z,99492.25
2019-03-30T02:41:09.363Z,99491.03
2019-03-30T02:43:37.879Z,99481.52
2019-03-30T02:46:06.364Z,99481.83
2019-03-30T02:48:34.884Z,99474.18
2019-03-30T02:51:03.429Z,99476.32
2019-03-30T02:53:31.976Z,99473.81
2019-03-30T02:56:00.555Z,99475.42
2019-03-30T02:58:29.072Z,99474.58
2019-03-30T03:00:57.550Z,99477.09
2019-03-30T03:03:26.048Z,99474.05
2019-03-30T03:05:54.540Z,99477.09
2019-03-30T03:08:23.226Z,99469.38
2019-03-30T03:10:51.737Z,99465.30
2019-03-30T03:13:20.426Z,99464.98
2019-03-30T03:15:48.948Z,99467.37
2019-03-30T03:18:17.447Z,99467.98
2019-03-30T03:20:46.029Z,99466.35
2019-03-30T03:23:14.513Z,99463.88
2019-03-30T03:25:43.050Z,99465.95
2019-03-30T03:28:11.549Z,99463.66
2019-03-30T03:30:40.070Z,99457.49
2019-03-30T03:33:08.710Z,99455.11
2019-03-30T03:35:37.280Z,99452.45
2019-03-30T03:38:05.821Z,99455.45
2019-03-30T03:40:34.298Z,99458.27
2019-03-30T03:43:02.820Z,99458.17
2019-03-30T03:45:31.332Z,99456.02
2019-03-30T03:47:59.902Z,99453.77
2019-03-30T03:50:37.051Z,99446.94
2019-03-30T03:53:05.795Z,99447.44
2019-03-30T03:55:35.355Z,99443.84
2019-03-30T03:58:05.277Z,99440.75
2019-03-30T04:00:35.532Z,99446.81
2019-03-30T04:03:05.850Z,99438.38
2019-03-30T04:05:36.914Z,99436.45
2019-03-30T04:08:08.717Z,99443.28
2019-03-30T04:10:38.703Z,99434.45
2019-03-30T04:13:08.921Z,99441.59
2019-03-30T04:15:37.517Z,99442.97
2019-03-30T04:18:06.009Z,99444.34
2019-03-30T04:20:34.502Z,99433.11
2019-03-30T04:23:03.014Z,99438.06
2019-03-30T04:25:31.525Z,99437.40
2019-03-30T04:28:00.086Z,99435.01
2019-03-30T04:30:28.658Z,99433.08
2019-03-30T04:32:57.129Z,99441.05
2019-03-30T04:35:25.622Z,99436.95
2019-03-30T04:37:54.139Z,99431.23
2019-03-30T04:40:22.638Z,99437.92
2019-03-30T04:42:51.164Z,99435.45
2019-03-30T04:45:19.655Z,99434.92
2019-03-30T04:47:48.176Z,99433.31
2019-03-30T04:50:16.671Z,99424.11
2019-03-30T04:52:45.162Z,99425.30
2019-03-30T04:55:13.673Z,99434.09
2019-03-30T04:57:42.161Z,99434.02
2019-03-30T05:00:10.912Z,99431.01
2019-03-30T05:02:39.420Z,99432.87
2019-03-30T05:05:08.764Z,99435.27
2019-03-30T05:07:37.263Z,99440.58
2019-03-30T05:10:09.009Z,99430.42
2019-03-30T05:12:36.755Z,99431.98
2019-03-30T05:15:06.456Z,99429.91
2019-03-30T05:17:46.971Z,99426.05
2019-03-30T05:20:06.887Z,99430.28
2019-03-30T05:22:35.378Z,99427.28
2019-03-30T05:25:04.733Z,99428.50
2019-03-30T05:27:33.222Z,99425.31
2019-03-30T05:30:01.751Z,99420.95
2019-03-30T05:32:30.241Z,99422.20
2019-03-30T05:34:58.758Z,99416.67
2019-03-30T05:37:27.304Z,99421.59
2019-03-30T05:39:55.792Z,99420.68
2019-03-30T05:42:24.310Z,99419.82
2019-03-30T05:44:52.799Z,99425.11
2019-03-30T05:47:21.464Z,99422.08
2019-03-30T05:49:49.951Z,99416.80
2019-03-30T05:52:26.500Z,99413.94
2019-03-30T05:54:48.663Z,99414.80
2019-03-30T05:57:17.151Z,99419.49
2019-03-30T05:59:45.655Z,99415.63
2019-03-30T06:02:14.141Z,99415.66
2019-03-30T06:04:42.710Z,99416.75
2019-03-30T06:07:11.240Z,99413.41
2019-03-30T06:09:39.716Z,99414.78
2019-03-30T06:12:08.276Z,99410.66
2019-03-30T06:14:36.845Z,99411.98
2019-03-30T06:17:05.334Z,99414.03
2019-03-30T06:19:33.831Z,99413.98
2019-03-30T06:22:03.346Z,99410.70
2019-03-30T06:24:31.804Z,99409.66
2019-03-30T06:27:00.387Z,99408.48
2019-03-30T06:29:28.880Z,99407.06
2019-03-30T06:31:57.400Z,99408.27
2019-03-30T06:34:25.913Z,99409.20
2019-03-30T06:36:54.464Z,99408.05
2019-03-30T06:39:22.982Z,99408.67
2019-03-30T06:41:51.477Z,99416.33
2019-03-30T06:44:19.974Z,99416.22
2019-03-30T06:46:48.505Z,99411.93
2019-03-30T06:49:16.998Z,99405.23
2019-03-30T06:51:45.476Z,99403.04
2019-03-30T06:54:14.928Z,99406.03
2019-03-30T06:56:45.097Z,99408.72
2019-03-30T06:59:13.588Z,99408.72
2019-03-30T07:01:42.267Z,99397.06
2019-03-30T07:04:11.330Z,99396.05
2019-03-30T07:06:40.378Z,99395.44
2019-03-30T07:09:08.872Z,99401.77
2019-03-30T07:11:40.405Z,99404.00
2019-03-30T07:14:09.090Z,99408.58
2019-03-30T07:16:39.753Z,99397.48
2019-03-30T07:19:08.271Z,99399.69
2019-03-30T07:21:36.792Z,99400.88
2019-03-30T07:24:05.282Z,99399.25
2019-03-30T07:26:33.800Z,99396.99
2019-03-30T07:29:02.615Z,99395.21
2019-03-30T07:31:31.127Z,99400.41
2019-03-30T07:33:59.647Z,99398.83
2019-03-30T07:36:28.131Z,99397.23
2019-03-30T07:38:56.629Z,99401.39
2019-03-30T07:41:25.186Z,99395.48
2019-03-30T07:43:55.233Z,99399.16
2019-03-30T07:46:23.730Z,99396.88
2019-03-30T07:48:52.242Z,99391.42
2019-03-30T07:51:20.748Z,99390.13
2019-03-30T07:53:49.301Z,99386.88
2019-03-30T07:56:17.786Z,99387.52
2019-03-30T07:58:46.312Z,99385.66
2019-03-30T08:01:14.846Z,99390.53
2019-03-30T08:03:43.352Z,99387.50
2019-03-30T08:06:11.867Z,99389.08
2019-03-30T08:08:40.355Z,99387.41
2019-03-30T08:11:09.028Z,99386.91
2019-03-30T08:13:37.548Z,99384.80
2019-03-30T08:16:06.049Z,99385.66
2019-03-30T08:18:34.541Z,99384.75
2019-03-30T08:21:03.061Z,99374.46
2019-03-30T08:23:40.301Z,99374.19
2019-03-30T08:26:01.780Z,99371.84
2019-03-30T08:28:30.266Z,99366.16
2019-03-30T08:30:58.781Z,99369.06
2019-03-30T08:33:27.273Z,99378.08
2019-03-30T08:35:55.793Z,99373.77
2019-03-30T08:38:24.288Z,99365.45
2019-03-30T08:40:52.845Z,99362.27
2019-03-30T08:43:21.341Z,99356.38
2019-03-30T08:45:49.814Z,99362.16
2019-03-30T08:48:18.322Z,99357.91
2019-03-30T08:50:46.816Z,99361.35
2019-03-30T08:53:15.306Z,99363.41
2019-03-30T08:55:43.794Z,99357.38
2019-03-30T08:58:12.309Z,99356.14
2019-03-30T09:00:44.173Z,99353.91
2019-03-30T09:03:12.744Z,99355.72
2019-03-30T09:05:41.231Z,99351.34
2019-03-30T09:08:09.794Z,99350.00
2019-03-30T09:10:38.447Z,99352.94
2019-03-30T09:13:06.966Z,99352.64
2019-03-30T09:15:35.515Z,99354.15
2019-03-30T09:18:04.257Z,99339.27
2019-03-30T09:20:32.748Z,99336.39
2019-03-30T09:23:01.303Z,99329.61
2019-03-30T09:25:29.802Z,99330.25
2019-03-30T09:27:58.282Z,99329.22
2019-03-30T09:30:26.848Z,99319.78
2019-03-30T09:32:55.437Z,99324.88
2019-03-30T09:35:23.923Z,99322.78
2019-03-30T09:37:52.449Z,99314.95
2019-03-30T09:40:21.003Z,99306.91
2019-03-30T09:42:49.559Z,99307.59
2019-03-30T09:45:18.033Z,99308.02
2019-03-30T09:47:46.598Z,99298.61
2019-03-30T09:50:15.460Z,99304.62
2019-03-30T09:52:43.947Z,99302.43
2019-03-30T09:55:12.711Z,99297.77
2019-03-30T09:57:41.229Z,99298.73
2019-03-30T10:00:09.949Z,99297.27
2019-03-30T10:02:38.475Z,99289.59
2019-03-30T10:05:07.431Z,99295.32
2019-03-30T10:07:36.283Z,99294.94
2019-03-30T10:10:06.310Z,99285.83
2019-03-30T10:12:34.824Z,99296.56
2019-03-30T10:15:04.179Z,99283.25
2019-03-30T10:17:32.692Z,99278.98
2019-03-30T10:20:04.837Z,99272.48
2019-03-30T10:22:31.476Z,99286.54
2019-03-30T10:24:59.975Z,99276.17
2019-03-30T10:27:28.455Z,99279.61
2019-03-30T10:29:56.972Z,99272.82
2019-03-30T10:32:25.497Z,99268.93
2019-03-30T10:34:53.989Z,99262.41
2019-03-30T10:37:22.475Z,99266.88
2019-03-30T10:39:51.062Z,99257.19
2019-03-30T10:42:19.620Z,99257.31
2019-03-30T10:44:48.229Z,99263.88
2019-03-30T10:47:16.714Z,99255.21
2019-03-30T10:49:45.208Z,99258.72
2019-03-30T10:52:13.686Z,99252.95
2019-03-30T10:54:52.681Z,99249.02
2019-03-30T10:57:12.448Z,99248.94
2019-03-30T10:59:40.965Z,99238.35
2019-03-30T11:02:09.536Z,99238.35
2019-03-30T11:04:38.081Z,99238.28
2019-03-30T11:07:06.623Z,99231.64
2019-03-30T11:09:35.103Z,99238.15
2019-03-30T11:12:04.374Z,99226.46
2019-03-30T11:14:32.901Z,99225.02
2019-03-30T11:17:01.471Z,99219.08
2019-03-30T11:19:29.964Z,99218.95
2019-03-30T11:21:58.472Z,99206.65
2019-03-30T11:24:27.163Z,99206.65
2019-03-30T11:26:55.642Z,99202.81
2019-03-30T11:29:24.171Z,99198.86
2019-03-30T11:31:52.678Z,99198.86
2019-03-30T11:34:21.284Z,99202.59
2019-03-30T11:36:49.802Z,99191.64
2019-03-30T11:39:18.304Z,99181.37
2019-03-30T11:41:46.829Z,99181.27
2019-03-30T11:44:15.324Z,99183.14
2019-03-30T11:46:43.810Z,99184.05
2019-03-30T11:49:12.318Z,99176.06
2019-03-30T11:51:40.803Z,99176.06
2019-03-30T11:54:09.390Z,99177.09
2019-03-30T11:56:37.910Z,99177.51
2019-03-30T11:59:06.398Z,99168.75
2019-03-30T12:01:34.895Z,99164.08
2019-03-30T12:04:03.378Z,99167.95
2019-03-30T12:06:31.901Z,99157.41
2019-03-30T12:09:00.413Z,99156.14
2019-03-30T12:11:29.283Z,99152.37
2019-03-30T12:13:57.802Z,99159.02
2019-03-30T12:16:26.288Z,99143.30
2019-03-30T12:18:54.785Z,99139.77
2019-03-30T12:21:23.301Z,99139.77
2019-03-30T12:23:51.781Z,99136.66
2019-03-30T12:26:20.305Z,99128.70
2019-03-30T12:28:48.798Z,99128.70
2019-03-30T12:31:17.287Z,99131.31
2019-03-30T12:33:45.911Z,99124.65
2019-03-30T12:36:14.409Z,99123.48
2019-03-30T12:38:42.939Z,99118.54
2019-03-30T12:41:11.459Z,99121.55
2019-03-30T12:43:39.939Z,99108.71
2019-03-30T12:46:08.596Z,99109.59
2019-03-30T12:48:37.142Z,99102.62
2019-03-30T12:51:05.648Z,99093.89
2019-03-30T12:53:34.145Z,99099.84
2019-03-30T12:56:02.635Z,99095.34
2019-03-30T12:58:31.205Z,99089.03
2019-03-30T13:00:59.728Z,99096.05
2019-03-30T13:03:28.222Z,99089.90
2019-03-30T13:05:56.728Z,99078.56
2019-03-30T13:08:25.244Z,99074.94
2019-03-30T13:10:53.734Z,99067.82
2019-03-30T13:13:22.255Z,99064.13
2019-03-30T13:15:50.740Z,99064.13
2019-03-30T13:18:19.227Z,99057.86
2019-03-30T13:20:47.742Z,99061.75
2019-03-30T13:23:16.259Z,99065.63
2019-03-30T13:25:44.763Z,99060.06
2019-03-30T13:28:13.331Z,99047.35
2019-03-30T13:30:41.900Z,99037.30
2019-03-30T13:33:10.452Z,99037.30
2019-03-30T13:35:38.970Z,99033.55
2019-03-30T13:38:07.489Z,99030.95
2019-03-30T13:40:36.149Z,99034.95
2019-03-30T13:43:04.738Z,99034.95
2019-03-30T13:45:33.323Z,99028.45
2019-03-30T13:48:01.808Z,99030.34
2019-03-30T13:50:31.120Z,99027.27
2019-03-30T13:52:59.785Z,99030.67
2019-03-30T13:55:28.298Z,99030.67
2019-03-30T13:57:56.811Z,99024.09
2019-03-30T14:00:25.539Z,99019.28
2019-03-30T14:02:54.057Z,99017.48
2019-03-30T14:05:22.622Z,99015.03
2019-03-30T14:07:51.153Z,99019.56
2019-03-30T14:10:19.771Z,99009.81
2019-03-30T14:12:48.270Z,98999.16
2019-03-30T14:15:16.871Z,99001.83
2019-03-30T14:17:45.360Z,98995.45
2019-03-30T14:20:13.990Z,98986.82
2019-03-30T14:22:42.513Z,98986.87
2019-03-30T14:25:11.063Z,98977.22
2019-03-30T14:27:39.585Z,98977.22
2019-03-30T14:30:11.082Z,98976.98
2019-03-30T14:32:39.612Z,98966.55
2019-03-30T14:35:08.545Z,98978.05
2019-03-30T14:37:37.027Z,98969.68
2019-03-30T14:40:07.985Z,98964.55
2019-03-30T14:42:36.472Z,98960.83
2019-03-30T14:45:07.000Z,98949.54
2019-03-30T14:47:35.514Z,98949.17
2019-03-30T14:50:05.984Z,98942.80
2019-03-30T14:52:34.505Z,98938.91
2019-03-30T14:55:02.995Z,98933.61
2019-03-30T14:57:31.582Z,98931.71
2019-03-30T15:00:00.098Z,98922.68
2019-03-30T15:02:28.854Z,98923.83
2019-03-30T15:05:00.659Z,98916.65
2019-03-30T15:07:27.597Z,98918.58
2019-03-30T15:09:56.077Z,98911.92
2019-03-30T15:12:24.668Z,98905.78
2019-03-30T15:14:53.149Z,98899.84
2019-03-30T15:17:21.725Z,98901.80
2019-03-30T15:19:50.241Z,98904.43
2019-03-30T15:22:18.742Z,98898.17
2019-03-30T15:24:47.322Z,98901.39
2019-03-30T15:27:15.825Z,98897.63
2019-03-30T15:29:45.655Z,98901.30
2019-03-30T15:32:14.300Z,98891.22
2019-03-30T15:34:42.881Z,98895.22
2019-03-30T15:37:11.380Z,98892.12
2019-03-30T15:39:39.875Z,98887.57
2019-03-30T15:42:08.370Z,98888.49
2019-03-30T15:44:36.855Z,98885.25
2019-03-30T15:47:05.478Z,98883.06
2019-03-30T15:49:33.970Z,98877.33
2019-03-30T15:52:13.274Z,98882.39
2019-03-30T15:54:33.070Z,98871.30
2019-03-30T15:57:13.459Z,98874.63
2019-03-30T15:59:31.876Z,98873.95
2019-03-30T16:02:00.438Z,98873.25
2019-03-30T16:04:28.960Z,98866.19
2019-03-30T16:06:58.613Z,98861.52
2019-03-30T16:09:27.112Z,98860.13
2019-03-30T16:11:55.662Z,98857.02
2019-03-30T16:14:24.114Z,98846.71
2019-03-30T16:16:52.683Z,98856.48
2019-03-30T16:19:21.184Z,98850.91
2019-03-30T16:21:49.888Z,98849.63
2019-03-30T16:24:18.620Z,98851.34
2019-03-30T16:26:47.144Z,98846.44
2019-03-30T16:29:15.629Z,98841.06
2019-03-30T16:31:44.131Z,98842.59
2019-03-30T16:34:12.797Z,98837.94
2019-03-30T16:36:41.294Z,98833.03
2019-03-30T16:39:09.889Z,98832.97
2019-03-30T16:41:38.386Z,98819.29
2019-03-30T16:44:06.890Z,98820.28
2019-03-30T16:46:35.411Z,98821.95
2019-03-30T16:49:04.814Z,98819.06
2019-03-30T16:51:33.296Z,98813.09
2019-03-30T16:54:01.797Z,98817.30
2019-03-30T16:56:30.324Z,98816.80
2019-03-30T16:58:58.889Z,98812.42
2019-03-30T17:01:27.416Z,98816.70
2019-03-30T17:03:55.905Z,98815.09
2019-03-30T17:06:24.429Z,98814.93
2019-03-30T17:08:52.921Z,98813.15
2019-03-30T17:11:21.424Z,98807.19
2019-03-30T17:13:49.932Z,98808.32
2019-03-30T17:16:18.461Z,98810.81
2019-03-30T17:18:47.005Z,98812.14
2019-03-30T17:21:15.499Z,98808.00
2019-03-30T17:23:44.094Z,98810.73
2019-03-30T17:26:12.585Z,98808.89
2019-03-30T17:28:41.096Z,98810.14
2019-03-30T17:31:09.814Z,98808.72
2019-03-30T17:33:38.377Z,98808.64
2019-03-30T17:36:06.867Z,98810.77
2019-03-30T17:38:35.386Z,98812.31
2019-03-30T17:41:05.419Z,98816.66
2019-03-30T17:43:34.082Z,98811.62
2019-03-30T17:46:02.667Z,98821.88
2019-03-30T17:48:31.261Z,98818.71
2019-03-30T17:50:59.751Z,98813.28
2019-03-30T17:53:28.237Z,98814.81
2019-03-30T17:55:56.743Z,98814.58
2019-03-30T17:58:25.235Z,98813.77
2019-03-30T18:00:53.755Z,98813.66
2019-03-30T18:03:23.222Z,98817.82
2019-03-30T18:05:51.728Z,98820.23
2019-03-30T18:08:20.800Z,98819.89
2019-03-30T18:10:49.314Z,98821.63
2019-03-30T18:13:17.845Z,98826.16
2019-03-30T18:15:46.372Z,98824.15
2019-03-30T18:18:14.862Z,98815.80
2019-03-30T18:20:43.387Z,98827.33
2019-03-30T18:23:11.879Z,98827.39
2019-03-30T18:25:40.410Z,98829.81
2019-03-30T18:28:08.912Z,98840.27
2019-03-30T18:30:39.640Z,98846.43
2019-03-30T18:33:08.904Z,98843.13
2019-03-30T18:35:39.499Z,98836.78
2019-03-30T18:38:08.266Z,98839.28
2019-03-30T18:40:36.828Z,98842.91
2019-03-30T18:43:05.356Z,98842.20
2019-03-30T18:45:33.913Z,98841.31
2019-03-30T18:48:12.699Z,98845.66
2019-03-30T18:50:43.249Z,98838.33
2019-03-30T18:53:12.208Z,98844.38
2019-03-30T18:55:40.700Z,98847.27
2019-03-30T18:58:09.229Z,98844.86
2019-03-30T19:00:37.812Z,98846.77
2019-03-30T19:03:06.576Z,98840.26
2019-03-30T19:05:35.445Z,98846.92
2019-03-30T19:08:04.593Z,98846.53
2019-03-30T19:10:33.175Z,98848.84
2019-03-30T19:13:01.815Z,98847.55
2019-03-30T19:15:30.322Z,98841.80
2019-03-30T19:17:58.837Z,98842.20
2019-03-30T19:20:27.363Z,98851.96
2019-03-30T19:22:55.896Z,98848.00
2019-03-30T19:25:24.392Z,98855.05
2019-03-30T19:27:52.936Z,98848.34
2019-03-30T19:30:21.559Z,98852.77
2019-03-30T19:32:50.083Z,98850.52
2019-03-30T19:35:18.654Z,98844.56
2019-03-30T19:37:47.155Z,98838.23
2019-03-30T19:40:15.715Z,98846.58
2019-03-30T19:42:44.220Z,98836.63
2019-03-30T19:45:13.019Z,98842.86
2019-03-30T19:47:41.502Z,98833.73
2019-03-30T19:50:10.723Z,98833.19
2019-03-30T19:52:40.483Z,98834.53
2019-03-30T19:55:09.359Z,98834.73
2019-03-30T19:57:37.948Z,98831.98
2019-03-30T20:00:14.436Z,98830.33
2019-03-30T20:02:42.989Z,98830.60
2019-03-30T20:05:11.914Z,98826.74
2019-03-30T20:07:40.412Z,98821.98
2019-03-30T20:10:09.468Z,98824.52
2019-03-30T20:12:38.830Z,98829.31
2019-03-30T20:15:08.686Z,98827.97
2019-03-30T20:17:37.212Z,98824.72
2019-03-30T20:20:07.162Z,98816.93
2019-03-30T20:22:35.679Z,98816.77
2019-03-30T20:25:06.610Z,98817.23
2019-03-30T20:27:35.108Z,98816.81
2019-03-30T20:30:05.688Z,98820.30
2019-03-30T20:32:34.174Z,98819.80
2019-03-30T20:35:02.773Z,98820.25
2019-03-30T20:37:31.268Z,98812.47
2019-03-30T20:39:59.786Z,98813.02
2019-03-30T20:42:28.282Z,98812.45
2019-03-30T20:44:56.808Z,98813.69
2019-03-30T20:47:25.336Z,98807.57
2019-03-30T20:49:53.826Z,98801.77
2019-03-30T20:52:22.334Z,98798.61
2019-03-30T20:54:50.827Z,98800.28
2019-03-30T20:57:19.324Z,98797.34
2019-03-30T20:59:47.847Z,98796.50
2019-03-30T21:02:16.408Z,98792.36
2019-03-30T21:04:44.929Z,98787.47
2019-03-30T21:07:15.062Z,98792.30
2019-03-30T21:09:43.567Z,98796.58
2019-03-30T21:12:12.064Z,98783.42
2019-03-30T21:14:40.573Z,98783.59
2019-03-30T21:17:09.074Z,98788.42
2019-03-30T21:19:37.594Z,98784.01
2019-03-30T21:22:06.091Z,98779.39
2019-03-30T21:24:34.614Z,98781.92
2019-03-30T21:27:03.098Z,98781.53
2019-03-30T21:29:31.597Z,98780.30
2019-03-30T21:32:00.092Z,98774.80
2019-03-30T21:34:28.615Z,98782.60
2019-03-30T21:36:57.216Z,98779.70
2019-03-30T21:39:25.700Z,98777.93
2019-03-30T21:41:54.220Z,98782.90
2019-03-30T21:44:22.851Z,98784.06
2019-03-30T21:46:51.382Z,98783.48
2019-03-30T21:49:19.863Z,98786.77
2019-03-30T21:51:48.384Z,98782.83
2019-03-30T21:54:16.876Z,98778.92
2019-03-30T21:56:45.400Z,98780.78
2019-03-30T21:59:13.918Z,98782.76
2019-03-30T22:01:43.439Z,98783.63
2019-03-30T22:04:11.988Z,98776.63
2019-03-30T22:06:40.719Z,98780.78
2019-03-30T22:09:09.448Z,98772.65
2019-03-30T22:11:38.019Z,98772.72
2019-03-30T22:14:08.601Z,98775.42
2019-03-30T22:16:37.117Z,98764.33
2019-03-30T22:19:05.686Z,98762.77
2019-03-30T22:21:34.246Z,98768.41
2019-03-30T22:24:02.729Z,98763.67
2019-03-30T22:26:31.248Z,98765.78
2019-03-30T22:28:59.739Z,98766.12
2019-03-30T22:31:28.264Z,98766.84
2019-03-30T22:33:56.752Z,98760.58
2019-03-30T22:36:25.272Z,98760.25
2019-03-30T22:38:53.773Z,98764.16
2019-03-30T22:41:22.316Z,98764.58
2019-03-30T22:43:50.788Z,98765.13
2019-03-30T22:46:19.369Z,98770.20
2019-03-30T22:48:47.857Z,98761.80
2019-03-30T22:51:16.381Z,98763.34
2019-03-30T22:53:44.866Z,98761.55
2019-03-30T22:56:13.389Z,98769.30
2019-03-30T22:58:41.909Z,98767.99
2019-03-30T23:01:12.105Z,98765.55
2019-03-30T23:03:40.764Z,98770.55
2019-03-30T23:06:09.467Z,98770.70
2019-03-30T23:08:37.941Z,98763.31
2019-03-30T23:11:06.445Z,98768.44
2019-03-30T23:13:34.923Z,98768.56
2019-03-30T23:16:03.422Z,98766.78
2019-03-30T23:18:31.905Z,98763.32
2019-03-30T23:21:00.389Z,98764.16
2019-03-30T23:23:28.900Z,98763.88
2019-03-30T23:25:57.386Z,98758.42
2019-03-30T23:28:25.863Z,98762.45
2019-03-30T23:30:54.907Z,98767.63
2019-03-30T23:33:24.423Z,98772.58
2019-03-30T23:35:52.996Z,98762.61
2019-03-30T23:38:21.480Z,98755.73
2019-03-30T23:40:49.957Z,98749.40
2019-03-30T23:43:18.475Z,98746.28
2019-03-30T23:45:46.967Z,98748.47
2019-03-30T23:48:15.443Z,98744.44
2019-03-30T23:50:44.219Z,98741.67
2019-03-30T23:53:12.689Z,98745.23
2019-03-30T23:55:41.182Z,98738.33
2019-03-30T23:58:09.669Z,98733.05
